Time;durP1;ratioP1;P1;durP2;ratioP2;P2;SDS_P1;SDS_P2;PMS_P1;PMS_P2;Temp;Humidity;BMP_temperature;BMP_pressure;BME280_temperature;BME280_humidity;BME280_pressure;Samples;Min_cycle;Max_cycle;Signal;HPM_P1;HPM_P2
2021/12/30 00:01:35;;;;;;;50.47;14.13;;;12.10;99.90;;;12.36;100.00;100918.78;5112904;28;20052;-76
2021/12/30 00:04:05;;;;;;;54.25;15.57;;;12.10;99.90;;;12.36;100.00;100918.78;5112898;28;20052;-71
2021/12/30 00:06:39;;;;;;;55.13;15.05;;;12.20;99.90;;;12.49;100.00;100936.31;5113379;28;20043;-70
2021/12/30 00:09:10;;;;;;;43.95;13.18;;;12.20;99.90;;;12.54;100.00;100930.06;5112927;28;20447;-71
2021/12/30 00:11:40;;;;;;;51.25;14.55;;;12.30;99.90;;;12.54;100.00;100919.44;5094892;28;20055;-71
2021/12/30 00:14:09;;;;;;;51.50;13.60;;;12.30;99.90;;;12.66;100.00;100929.91;5112821;28;20044;-71
2021/12/30 00:16:37;;;;;;;47.45;12.88;;;12.40;99.90;;;12.70;100.00;100926.34;5113337;28;20134;-71
2021/12/30 00:19:06;;;;;;;48.22;12.73;;;12.50;99.90;;;12.73;100.00;100927.19;5113131;28;20039;-71
2021/12/30 00:21:36;;;;;;;45.42;13.52;;;12.50;99.90;;;12.78;100.00;100920.03;5113015;28;20385;-71
2021/12/30 00:24:05;;;;;;;53.83;13.07;;;12.50;99.90;;;12.75;100.00;100918.34;5112718;28;20052;-71
2021/12/30 00:26:33;;;;;;;49.90;12.88;;;12.60;99.90;;;12.83;100.00;100915.56;5112696;28;20078;-71
2021/12/30 00:29:01;;;;;;;46.70;12.98;;;12.60;99.90;;;12.69;100.00;100903.38;5112667;28;20100;-71
2021/12/30 00:31:30;;;;;;;49.70;12.95;;;12.60;99.90;;;12.83;100.00;100918.22;5112806;28;20542;-71
2021/12/30 00:33:59;;;;;;;42.08;12.27;;;12.60;99.90;;;12.87;100.00;100912.88;5094641;28;20657;-71
2021/12/30 00:36:27;;;;;;;46.72;13.77;;;12.60;99.90;;;12.82;100.00;100909.38;5116782;28;20046;-71
2021/12/30 00:38:57;;;;;;;42.00;12.15;;;12.60;99.90;;;12.87;100.00;100912.88;5116366;28;20095;-71
2021/12/30 00:41:26;;;;;;;37.10;13.07;;;12.70;99.90;;;12.44;100.00;100846.19;5116424;28;20039;-71
2021/12/30 00:43:54;;;;;;;44.20;12.23;;;12.70;99.90;;;12.95;100.00;100924.25;5116295;28;20035;-71
2021/12/30 00:46:22;;;;;;;34.83;12.60;;;12.80;99.90;;;13.05;100.00;100933.00;5116353;28;20246;-72
2021/12/30 00:48:51;;;;;;;43.17;13.40;;;12.80;99.90;;;12.62;100.00;100866.28;5116273;28;20051;-72
2021/12/30 00:51:19;;;;;;;43.38;13.70;;;12.80;99.90;;;13.09;100.00;100946.22;5116499;28;20044;-72
2021/12/30 00:53:48;;;;;;;44.67;15.40;;;12.90;99.90;;;12.89;100.00;100915.50;5116446;28;20506;-72
2021/12/30 00:56:18;;;;;;;42.92;15.93;;;12.80;99.90;;;13.07;100.00;100939.16;5116355;28;20461;-72
2021/12/30 00:58:46;;;;;;;44.20;16.92;;;12.90;99.90;;;13.08;100.00;100943.59;5116313;28;20116;-72
2021/12/30 01:01:14;;;;;;;44.75;18.02;;;12.80;99.90;;;12.94;100.00;100909.22;5116135;28;20131;-72
2021/12/30 01:03:43;;;;;;;39.97;17.98;;;12.80;99.90;;;12.99;100.00;100930.41;5116030;28;20048;-72
2021/12/30 01:06:11;;;;;;;41.03;17.20;;;12.80;99.90;;;12.91;100.00;100916.34;5115924;28;20047;-71
2021/12/30 01:08:40;;;;;;;42.40;17.63;;;12.70;99.90;;;12.97;100.00;100934.88;5115842;28;20493;-71
2021/12/30 01:11:09;;;;;;;39.97;17.38;;;12.70;99.90;;;12.80;100.00;100903.22;5116032;28;20134;-71
2021/12/30 01:13:44;;;;;;;38.60;16.80;;;12.70;99.90;;;12.88;100.00;100897.78;5115746;28;20497;-72
2021/12/30 01:16:17;;;;;;;41.35;17.42;;;12.80;99.90;;;13.03;100.00;100916.16;5116362;28;20071;-71
2021/12/30 01:19:00;;;;;;;38.05;17.33;;;12.80;99.90;;;13.02;100.00;100914.44;5116245;28;20396;-72
2021/12/30 01:21:33;;;;;;;40.70;18.02;;;12.80;99.90;;;13.08;100.00;100912.63;5115748;28;20493;-72
2021/12/30 01:24:04;;;;;;;43.22;18.38;;;12.80;99.90;;;12.92;100.00;100919.00;5115639;28;20043;-71
2021/12/30 01:26:32;;;;;;;;;;;12.80;99.90;;;13.03;100.00;100933.03;5116104;28;20075;-72
2021/12/30 01:29:02;;;;;;;36.00;15.35;;;12.80;99.90;;;12.98;100.00;100934.84;5115790;28;19966;-72
2021/12/30 01:31:31;;;;;;;40.85;16.40;;;12.80;99.90;;;12.93;100.00;100923.38;5116083;28;20470;-72
2021/12/30 01:34:19;;;;;;;38.58;14.93;;;12.80;99.90;;;13.04;100.00;100948.06;5115370;28;20050;-72
2021/12/30 01:36:48;;;;;;;41.08;16.38;;;12.80;99.90;;;12.97;100.00;100946.34;5115377;28;20050;-71
2021/12/30 01:39:19;;;;;;;42.97;17.38;;;12.80;99.90;;;12.99;100.00;100959.63;5115247;28;20048;-71
2021/12/30 01:41:50;;;;;;;36.83;16.13;;;12.80;99.90;;;12.62;100.00;100879.53;5097336;28;20040;-71
2021/12/30 01:44:22;;;;;;;36.80;15.32;;;12.80;99.90;;;13.03;100.00;100943.66;5115263;28;20440;-72
2021/12/30 01:46:51;;;;;;;36.58;16.17;;;12.90;99.90;;;13.22;100.00;100968.19;5096005;28;20488;-72
2021/12/30 01:49:21;;;;;;;31.77;14.65;;;13.00;99.90;;;13.19;100.00;100969.09;5115053;28;20079;-72
2021/12/30 01:51:51;;;;;;;;;;;13.00;99.90;;;13.09;100.00;100977.19;5097592;28;20044;-72
2021/12/30 01:54:21;;;;;;;29.08;15.73;;;12.90;99.90;;;13.14;100.00;100970.06;5097075;28;20047;-72
2021/12/30 01:56:50;;;;;;;29.63;14.25;;;12.90;99.90;;;13.18;100.00;100964.69;5115176;28;20493;-72
2021/12/30 01:59:20;;;;;;;31.00;14.30;;;13.00;99.90;;;13.22;100.00;100966.41;5114790;28;20044;-72
2021/12/30 02:01:53;;;;;;;;;;;13.00;99.90;;;13.15;100.00;100962.06;5097250;28;20100;-72
2021/12/30 02:04:24;;;;;;;27.95;13.25;;;13.00;99.90;;;12.39;100.00;100844.47;5115465;28;20036;-72
2021/12/30 02:06:53;;;;;;;26.05;13.50;;;13.00;99.90;;;13.13;100.00;100958.56;5114770;28;20106;-72
2021/12/30 02:09:22;;;;;;;25.05;12.32;;;13.00;99.90;;;13.24;100.00;100972.56;5115260;28;20047;-71
2021/12/30 02:11:52;;;;;;;23.27;11.13;;;13.00;99.90;;;13.23;100.00;100962.84;5115013;28;20047;-72
2021/12/30 02:14:23;;;;;;;17.98;10.27;;;13.00;99.90;;;13.19;100.00;100958.47;5114892;28;20376;-72
2021/12/30 02:16:52;;;;;;;18.90;9.68;;;13.00;99.90;;;13.20;100.00;100959.38;5114964;28;20377;-72
2021/12/30 02:19:21;;;;;;;23.25;9.95;;;13.00;99.90;;;13.19;100.00;100960.25;5114774;28;20152;-72
2021/12/30 02:21:51;;;;;;;17.85;9.95;;;13.00;99.90;;;13.21;100.00;100964.66;5114738;28;20073;-72
2021/12/30 02:24:20;;;;;;;19.52;10.18;;;13.00;99.90;;;13.31;100.00;100955.66;5114371;28;20051;-72
2021/12/30 02:26:48;;;;;;;18.73;9.88;;;13.10;99.90;;;13.30;100.00;100964.53;5114341;28;20461;-72
2021/12/30 02:29:17;;;;;;;17.65;9.65;;;13.10;99.90;;;13.39;100.00;100977.66;5114197;28;20397;-72
2021/12/30 02:31:46;;;;;;;17.73;10.57;;;13.20;99.90;;;13.38;100.00;100981.25;5114290;28;20895;-72
2021/12/30 02:34:16;;;;;;;17.88;9.82;;;13.20;99.90;;;13.33;100.00;100977.78;5114421;28;20081;-72
2021/12/30 02:36:49;;;;;;;17.15;9.85;;;13.20;99.90;;;13.37;100.00;100989.22;5114792;28;20122;-72
2021/12/30 02:39:21;;;;;;;21.45;12.00;;;13.20;99.90;;;13.42;100.00;101008.63;5114094;28;20443;-72
2021/12/30 02:41:51;;;;;;;19.25;10.75;;;13.20;99.90;;;13.41;100.00;100997.13;5096084;28;20062;-72
2021/12/30 02:44:19;;;;;;;22.17;11.35;;;13.20;99.90;;;13.29;100.00;100961.88;5114577;28;20123;-72
2021/12/30 02:46:52;;;;;;;21.08;11.35;;;13.20;99.90;;;13.38;100.00;100989.22;5114162;28;20101;-72
2021/12/30 02:49:22;;;;;;;29.58;14.40;;;13.20;99.90;;;13.34;100.00;100995.47;5114574;28;20052;-72
2021/12/30 02:51:50;;;;;;;26.98;14.02;;;13.20;99.90;;;13.33;100.00;100992.84;5114200;28;20036;-72
2021/12/30 02:54:20;;;;;;;30.92;14.35;;;13.20;99.90;;;13.34;100.00;100995.47;5114066;28;20047;-72
2021/12/30 02:56:49;;;;;;;24.40;13.73;;;13.20;99.90;;;13.36;100.00;100990.13;5113642;28;20544;-72
2021/12/30 02:59:19;;;;;;;32.78;15.00;;;13.20;99.90;;;13.28;100.00;100982.25;5113546;28;20070;-72
2021/12/30 03:01:49;;;;;;;33.53;14.80;;;13.10;99.90;;;13.33;100.00;100985.75;5095527;28;20400;-72
2021/12/30 03:04:18;;;;;;;31.70;14.50;;;13.10;99.90;;;13.26;100.00;100970.78;5113922;28;20130;-72
2021/12/30 03:06:47;;;;;;;34.97;15.68;;;13.20;99.90;;;12.91;100.00;100909.25;5113582;28;20339;-72
2021/12/30 03:09:15;;;;;;;32.65;15.07;;;13.20;99.90;;;12.79;100.00;100895.28;5113566;28;20056;-72
2021/12/30 03:11:45;;;;;;;29.60;13.75;;;13.20;99.90;;;13.34;100.00;100984.84;5095521;28;20079;-72
2021/12/30 03:14:14;;;;;;;33.38;13.88;;;13.10;99.90;;;13.27;100.00;100976.97;5113546;28;20051;-72
2021/12/30 03:16:43;;;;;;;35.55;15.63;;;13.10;99.90;;;13.32;100.00;100991.06;5113444;28;20469;-72
2021/12/30 03:19:11;;;;;;;32.40;15.43;;;13.10;99.90;;;13.35;100.00;100985.72;5113361;28;20040;-72
2021/12/30 03:21:40;;;;;;;36.22;16.00;;;13.20;99.90;;;13.38;100.00;100991.88;5113396;28;20067;-72
2021/12/30 03:24:08;;;;;;;28.10;13.80;;;13.20;99.90;;;13.34;100.00;100979.53;5113303;28;20098;-72
2021/12/30 03:26:37;;;;;;;34.70;16.10;;;13.20;99.90;;;13.35;100.00;100999.88;5113307;28;20043;-72
2021/12/30 03:29:07;;;;;;;37.55;16.45;;;13.20;99.90;;;13.37;100.00;101000.75;5113501;28;20063;-72
2021/12/30 03:31:36;;;;;;;29.83;16.55;;;13.20;99.90;;;13.29;100.00;100980.50;5113377;28;20485;-72
2021/12/30 03:34:04;;;;;;;30.83;16.35;;;13.20;99.90;;;13.39;100.00;100988.28;5095556;28;20040;-72
2021/12/30 03:36:33;;;;;;;37.67;17.45;;;13.20;99.90;;;13.40;100.00;101008.66;5113393;28;20048;-72
2021/12/30 03:39:02;;;;;;;33.88;17.45;;;13.20;99.90;;;13.40;100.00;101006.00;5113355;28;20123;-72
2021/12/30 03:41:31;;;;;;;33.70;17.33;;;13.20;99.90;;;13.25;100.00;100990.28;5095176;28;20055;-72
2021/12/30 03:44:02;;;;;;;36.83;18.83;;;13.20;99.90;;;13.08;100.00;100957.75;5113114;28;20050;-72
2021/12/30 03:46:32;;;;;;;;;;;13.20;99.90;;;13.25;100.00;100977.00;5113813;28;20455;-72
2021/12/30 03:49:01;;;;;;;33.97;16.30;;;13.20;99.90;;;13.29;100.00;100997.31;5113331;28;19919;-72
2021/12/30 03:51:37;;;;;;;34.90;19.50;;;13.10;99.90;;;13.31;100.00;101008.81;5113041;28;20039;-72
2021/12/30 03:54:07;;;;;;;35.67;17.10;;;13.10;99.90;;;13.32;100.00;100999.91;5113069;28;20044;-72
2021/12/30 03:56:36;;;;;;;35.63;18.55;;;13.10;99.90;;;13.24;100.00;100987.66;5113376;28;20073;-72
2021/12/30 03:59:05;;;;;;;38.22;17.33;;;13.10;99.90;;;12.70;100.00;100881.22;5094956;28;20130;-72
2021/12/30 04:01:34;;;;;;;35.53;18.20;;;13.20;99.90;;;13.23;100.00;100968.16;5113141;28;20055;-72
2021/12/30 04:04:04;;;;;;;32.08;15.73;;;13.20;99.90;;;13.42;100.00;100976.75;5113284;28;20046;-72
2021/12/30 04:06:33;;;;;;;30.80;15.18;;;13.20;99.90;;;13.29;100.00;100953.91;5113444;28;20063;-72
2021/12/30 04:09:01;;;;;;;26.52;13.88;;;13.20;99.90;;;13.27;100.00;100972.53;5112941;28;20100;-72
2021/12/30 04:11:33;;;;;;;29.33;13.38;;;13.20;99.90;;;13.44;100.00;100974.94;5117306;28;20466;-72
2021/12/30 04:14:02;;;;;;;29.65;13.35;;;13.20;99.90;;;13.32;100.00;100993.72;5117006;28;20036;-72
2021/12/30 04:16:32;;;;;;;34.10;13.30;;;13.20;99.90;;;13.29;100.00;100994.66;5117180;28;20039;-72
2021/12/30 04:19:02;;;;;;;34.28;13.88;;;13.10;99.90;;;13.34;100.00;101008.75;5117504;28;20088;-72
2021/12/30 04:21:31;;;;;;;30.50;13.32;;;13.10;99.90;;;13.27;100.00;100996.47;5117062;28;20401;-72
2021/12/30 04:24:00;;;;;;;34.70;13.57;;;13.10;99.90;;;13.31;100.00;101022.09;5116790;28;20118;-72
2021/12/30 04:26:29;;;;;;;30.42;14.05;;;13.10;99.90;;;13.41;100.00;101020.19;5116721;28;20085;-72
2021/12/30 04:28:57;;;;;;;35.67;13.00;;;13.20;99.90;;;13.28;100.00;101027.41;5116677;28;20465;-72
2021/12/30 04:31:26;;;;;;;33.58;13.98;;;13.10;99.90;;;13.26;100.00;101030.97;5116626;28;20050;-72
2021/12/30 04:33:54;;;;;;;38.47;13.55;;;13.10;99.90;;;13.37;100.00;101014.03;5117106;28;20039;-72
2021/12/30 04:36:24;;;;;;;29.10;13.30;;;13.10;99.90;;;13.24;100.00;101012.41;5116776;28;20036;-72
2021/12/30 04:38:52;;;;;;;30.03;12.40;;;13.10;99.90;;;13.26;100.00;101017.69;5116513;28;20070;-72
2021/12/30 04:41:20;;;;;;;27.60;12.23;;;13.10;99.90;;;13.23;100.00;101018.63;5116640;28;20048;-72
2021/12/30 04:43:49;;;;;;;30.98;12.55;;;13.10;99.90;;;13.09;100.00;100996.69;5116406;28;20108;-72
2021/12/30 04:46:17;;;;;;;25.70;12.18;;;13.10;99.90;;;13.28;100.00;101022.09;5116339;28;20043;-73
2021/12/30 04:48:47;;;;;;;23.80;10.43;;;13.10;99.90;;;12.73;100.00;100930.75;5116337;28;20138;-72
2021/12/30 04:51:16;;;;;;;27.13;10.88;;;13.10;99.90;;;13.07;100.00;100992.28;5116295;28;20047;-72
2021/12/30 04:53:47;;;;;;;22.40;10.85;;;13.00;99.90;;;13.04;100.00;101051.63;5116122;28;20044;-73
2021/12/30 04:56:16;;;;;;;24.15;10.35;;;13.00;99.90;;;13.17;100.00;101013.41;5116524;28;20096;-72
2021/12/30 04:58:44;;;;;;;24.83;11.23;;;13.00;99.90;;;13.23;100.00;101007.13;5116356;28;20548;-73
2021/12/30 05:01:13;;;;;;;21.55;9.98;;;13.00;99.90;;;13.20;100.00;101016.00;5115966;28;20055;-72
2021/12/30 05:03:41;;;;;;;24.10;10.02;;;13.00;99.90;;;13.20;100.00;101012.50;5116100;28;20500;-72
2021/12/30 05:06:10;;;;;;;33.20;11.32;;;13.00;99.90;;;12.56;100.00;100906.19;5115944;28;20063;-72
2021/12/30 05:08:38;;;;;;;24.48;10.07;;;13.00;99.90;;;13.23;100.00;101023.94;5116225;28;20040;-72
2021/12/30 05:11:08;;;;;;;21.65;9.48;;;13.00;99.90;;;13.19;100.00;101024.00;5115895;28;20472;-72
2021/12/30 05:13:36;;;;;;;23.83;9.33;;;13.00;99.90;;;13.21;100.00;101025.75;5115904;28;20107;-72
2021/12/30 05:16:05;;;;;;;22.67;9.32;;;13.10;99.90;;;13.27;100.00;101040.72;5115796;28;20063;-72
2021/12/30 05:18:36;;;;;;;23.17;8.98;;;13.10;99.90;;;13.17;100.00;101020.47;5097949;28;20055;-72
2021/12/30 05:21:06;;;;;;;23.13;9.23;;;13.10;99.90;;;13.10;100.00;101001.13;5115829;28;20043;-72
2021/12/30 05:23:35;;;;;;;20.05;8.73;;;13.10;99.90;;;13.35;100.00;101036.19;5115747;28;20052;-72
2021/12/30 05:26:04;;;;;;;22.42;8.60;;;13.20;99.90;;;13.34;100.00;101022.03;5115600;28;20148;-72
2021/12/30 05:28:34;;;;;;;18.45;7.90;;;13.10;99.90;;;13.35;100.00;101042.41;5115553;28;20082;-72
2021/12/30 05:31:02;;;;;;;22.30;8.07;;;13.20;99.90;;;13.44;100.00;101041.38;5115437;28;20055;-72
2021/12/30 05:33:31;;;;;;;21.05;7.38;;;13.20;99.90;;;13.47;100.00;101044.03;5115764;28;20043;-72
2021/12/30 05:35:59;;;;;;;17.48;7.40;;;13.30;99.90;;;13.48;100.00;101038.66;5115337;28;20516;-72
2021/12/30 05:38:28;;;;;;;25.25;7.45;;;13.30;99.90;;;13.52;100.00;101029.75;5115635;28;20118;-73
2021/12/30 05:40:56;;;;;;;21.33;7.65;;;13.30;99.90;;;13.53;100.00;101022.66;5115256;28;20505;-73
2021/12/30 05:43:25;;;;;;;15.70;6.40;;;13.30;99.90;;;13.42;100.00;101004.22;5115292;28;20108;-73
2021/12/30 05:45:54;;;;;;;20.05;6.88;;;13.40;99.90;;;13.66;100.00;101036.66;5115542;28;20052;-73
2021/12/30 05:48:23;;;;;;;16.73;7.40;;;13.50;99.90;;;13.55;100.00;101035.03;5115173;28;20043;-73
2021/12/30 05:50:53;;;;;;;17.80;6.90;;;13.40;99.90;;;13.55;100.00;101048.31;5097061;28;20729;-73
2021/12/30 05:53:22;;;;;;;20.08;7.18;;;13.40;99.90;;;13.59;100.00;101058.00;5097127;28;20481;-73
2021/12/30 05:55:50;;;;;;;14.45;7.28;;;13.40;99.90;;;13.62;100.00;101056.19;5115537;28;20070;-73
2021/12/30 05:58:18;;;;;;;16.92;6.45;;;13.40;99.90;;;13.64;100.00;101057.94;5114969;28;20457;-72
2021/12/30 06:00:47;;;;;;;15.85;6.97;;;13.40;99.90;;;13.62;100.00;101058.84;5114663;28;20062;-73
2021/12/30 06:03:19;;;;;;;18.42;8.38;;;13.40;99.90;;;13.61;100.00;101052.66;5115245;28;20049;-73
2021/12/30 06:05:49;;;;;;;18.15;7.13;;;13.40;99.90;;;13.53;100.00;101052.75;5115434;28;20039;-72
2021/12/30 06:08:18;;;;;;;15.43;7.05;;;13.40;99.90;;;13.50;100.00;101071.41;5096725;28;20130;-72
2021/12/30 06:10:46;;;;;;;15.82;8.27;;;13.30;99.90;;;13.52;100.00;101080.25;5114769;28;20134;-72
2021/12/30 06:13:15;;;;;;;16.17;8.20;;;13.30;99.90;;;13.52;100.00;101071.41;5096902;28;20038;-73
2021/12/30 06:15:43;;;;;;;24.45;9.70;;;13.30;99.90;;;13.50;100.00;101074.09;5114592;28;20374;-73
2021/12/30 06:18:12;;;;;;;18.83;9.02;;;13.30;99.90;;;13.41;100.00;101081.28;5114869;28;20154;-72
2021/12/30 06:20:42;;;;;;;16.13;9.25;;;13.30;99.90;;;13.40;100.00;101091.03;5114449;28;20044;-73
2021/12/30 06:23:10;;;;;;;16.27;8.23;;;13.20;99.90;;;13.43;100.00;101090.97;5114471;28;20040;-73
2021/12/30 06:25:38;;;;;;;20.75;10.93;;;13.20;99.90;;;13.46;100.00;101082.09;5114437;28;20138;-73
2021/12/30 06:28:07;;;;;;;16.00;9.75;;;13.30;99.90;;;13.48;100.00;101082.97;5114615;28;20070;-72
2021/12/30 06:30:35;;;;;;;15.95;8.43;;;13.30;99.90;;;13.53;100.00;101092.63;5114581;28;20465;-73
2021/12/30 06:33:04;;;;;;;10.80;6.85;;;13.30;99.90;;;13.42;100.00;101083.94;5113553;28;20044;-73
2021/12/30 06:35:34;;;;;;;12.98;7.18;;;13.30;99.90;;;13.33;100.00;101072.53;5095805;28;20067;-73
2021/12/30 06:38:05;;;;;;;9.23;6.05;;;13.20;99.90;;;13.30;100.00;101076.09;5114181;28;20039;-73
2021/12/30 06:40:33;;;;;;;15.63;7.18;;;13.20;99.90;;;13.37;100.00;101096.41;5114071;28;20067;-73
2021/12/30 06:43:02;;;;;;;15.07;7.25;;;13.20;99.90;;;13.41;100.00;101091.91;5114125;28;20470;-73
2021/12/30 06:45:30;;;;;;;13.13;7.03;;;13.20;99.90;;;13.32;100.00;101084.94;5114580;28;20039;-73
2021/12/30 06:48:00;;;;;;;17.80;8.27;;;13.20;99.90;;;13.35;100.00;101102.63;5113937;28;20079;-73
2021/12/30 06:50:31;;;;;;;32.50;10.70;;;13.10;99.90;;;13.32;100.00;101113.25;5113968;28;20043;-73
2021/12/30 06:53:01;;;;;;;25.02;10.35;;;13.20;99.90;;;13.28;100.00;101090.28;5113967;28;20047;-72
2021/12/30 06:55:30;;;;;;;26.45;10.80;;;13.20;99.90;;;13.34;100.00;101117.66;5095913;28;20043;-73
2021/12/30 06:57:59;;;;;;;29.33;11.40;;;13.10;99.90;;;13.34;100.00;101119.44;5114063;28;20043;-73
2021/12/30 07:00:27;;;;;;;38.95;12.95;;;13.20;99.90;;;12.56;100.00;101002.56;5095728;28;20155;-72
2021/12/30 07:02:56;;;;;;;37.33;13.20;;;13.10;99.90;;;13.23;100.00;101124.91;5072002;28;20397;-73
2021/12/30 07:05:25;;;;;;;33.63;12.35;;;13.10;99.90;;;13.10;100.00;101096.72;5073021;28;20463;-73
2021/12/30 07:07:53;;;;;;;44.83;13.80;;;13.00;99.90;;;13.18;100.00;101124.03;5073547;28;20044;-71
2021/12/30 07:10:21;;;;;;;48.53;14.73;;;13.00;99.90;;;13.19;100.00;101115.19;5073558;28;20046;-75
2021/12/30 07:12:51;;;;;;;39.58;13.52;;;13.00;99.90;;;13.13;100.00;101117.91;5072884;28;20048;-73
2021/12/30 07:15:20;;;;;;;52.38;15.52;;;13.00;99.90;;;13.20;100.00;101129.38;5072929;28;20498;-73
2021/12/30 07:17:49;;;;;;;46.58;14.07;;;13.00;99.90;;;12.56;100.00;100996.41;5073095;28;20036;-72
2021/12/30 07:20:17;;;;;;;43.28;13.13;;;13.00;99.90;;;13.23;100.00;101113.38;5073193;28;20098;-72
2021/12/30 07:22:46;;;;;;;40.97;13.55;;;13.00;99.90;;;13.13;100.00;101117.91;5072828;28;20063;-74
2021/12/30 07:25:18;;;;;;;48.60;11.88;;;13.00;99.90;;;13.09;100.00;101126.81;5073141;28;20048;-74
2021/12/30 07:27:49;;;;;;;45.20;12.65;;;12.90;99.90;;;13.10;100.00;101135.66;5073045;28;20094;-72
2021/12/30 07:30:21;;;;;;;43.00;12.77;;;12.90;99.90;;;12.93;100.00;101119.84;5072805;28;20037;-72
2021/12/30 07:32:50;;;;;;;45.88;12.68;;;12.90;99.90;;;12.97;100.00;101134.88;5073048;28;20044;-70
2021/12/30 07:35:20;;;;;;;53.13;13.32;;;12.80;99.90;;;12.94;100.00;101131.38;5073303;28;20143;-70
2021/12/30 07:37:50;;;;;;;49.70;13.57;;;12.80;99.90;;;12.99;100.00;101162.28;5073030;28;20041;-69
2021/12/30 07:40:20;;;;;;;53.83;13.05;;;12.80;99.90;;;12.97;100.00;101140.16;5071886;28;20098;-69
2021/12/30 07:42:49;;;;;;;44.55;12.43;;;12.80;99.90;;;12.92;100.00;101152.63;5072542;28;20049;-69
2021/12/30 07:45:19;;;;;;;52.92;13.18;;;12.80;99.90;;;13.05;100.00;101172.00;5072551;28;20037;-70
2021/12/30 07:47:50;;;;;;;55.08;13.38;;;12.80;99.90;;;12.81;100.00;101146.53;5072678;28;20048;-73
2021/12/30 07:50:19;;;;;;;59.38;14.18;;;12.80;99.90;;;12.98;100.00;101155.22;5072733;28;20491;-71
2021/12/30 07:52:48;;;;;;;55.08;13.70;;;12.80;99.90;;;12.97;100.00;101182.66;5072558;28;20072;-72
2021/12/30 07:55:16;;;;;;;55.35;13.05;;;12.80;99.90;;;12.99;100.00;101191.50;5072482;28;20502;-71
2021/12/30 07:57:45;;;;;;;58.40;13.45;;;12.80;99.90;;;12.99;100.00;101199.47;5072995;28;20040;-72
2021/12/30 08:00:18;;;;;;;62.15;14.55;;;12.80;99.90;;;12.89;100.00;101170.38;5072467;28;20048;-72
2021/12/30 08:02:48;;;;;;;72.28;15.10;;;12.80;99.90;;;12.98;100.00;101186.19;5111015;28;20439;-71
2021/12/30 08:05:18;;;;;;;62.70;14.65;;;12.80;99.90;;;13.02;100.00;101174.66;5112910;28;20039;-72
2021/12/30 08:07:48;;;;;;;68.28;14.75;;;12.80;99.90;;;13.01;100.00;101178.19;5094904;28;20051;-72
2021/12/30 08:10:18;;;;;;;67.97;15.02;;;12.80;99.90;;;12.97;100.00;101190.63;5094921;28;20055;-72
2021/12/30 08:12:48;;;;;;;62.92;14.30;;;12.80;99.90;;;12.97;100.00;101158.75;5094932;28;20051;-72
2021/12/30 08:15:18;;;;;;;60.13;14.10;;;12.80;99.90;;;12.94;100.00;101189.78;5113379;28;20135;-72
2021/12/30 08:17:49;;;;;;;74.13;13.97;;;12.80;99.90;;;12.97;100.00;101193.28;5112821;28;20384;-72
2021/12/30 08:20:21;;;;;;;68.85;14.77;;;12.80;99.90;;;12.97;100.00;101190.63;5113325;28;20104;-72
2021/12/30 08:22:52;;;;;;;82.72;15.77;;;12.80;99.90;;;12.94;100.00;101168.53;5112722;28;20447;-72
2021/12/30 08:25:22;;;;;;;71.05;15.00;;;12.80;99.90;;;12.89;100.00;101187.16;5112719;28;20052;-72
2021/12/30 08:27:51;;;;;;;68.88;14.20;;;12.80;99.90;;;13.06;100.00;101240.16;5113335;28;20058;-72
2021/12/30 08:30:21;;;;;;;81.10;15.18;;;12.80;99.90;;;12.95;100.00;101208.34;5113228;28;20050;-72
2021/12/30 08:32:52;;;;;;;69.18;13.43;;;12.80;99.90;;;13.02;100.00;101211.84;5094761;28;20147;-72
2021/12/30 08:35:21;;;;;;;68.72;13.38;;;12.90;99.90;;;13.05;100.00;101203.88;5112995;28;20040;-72
2021/12/30 08:37:51;;;;;;;62.25;13.48;;;12.80;99.90;;;12.89;100.00;101189.81;5113201;28;20052;-72
2021/12/30 08:40:20;;;;;;;67.83;13.60;;;12.90;99.90;;;13.04;100.00;101215.41;5112807;28;20405;-72
2021/12/30 08:42:49;;;;;;;66.93;13.70;;;12.90;99.90;;;13.02;100.00;101218.03;5112520;28;20297;-72
2021/12/30 08:45:19;;;;;;;78.65;13.82;;;12.90;99.90;;;12.60;100.00;101133.47;5112799;28;20044;-73
2021/12/30 08:47:47;;;;;;;64.90;13.23;;;12.90;99.90;;;13.12;100.00;101216.22;5112832;28;20040;-73
2021/12/30 08:50:17;;;;;;;65.43;13.15;;;13.00;99.90;;;13.09;100.00;101195.88;5112533;28;20277;-73
2021/12/30 08:52:48;;;;;;;67.07;14.15;;;13.10;99.90;;;13.27;100.00;101227.56;5113110;28;20048;-73
2021/12/30 08:55:18;;;;;;;59.60;12.60;;;13.10;99.90;;;13.28;100.00;101234.63;5112972;28;20070;-73
2021/12/30 08:57:48;;;;;;;53.55;11.55;;;13.10;99.90;;;13.28;100.00;101205.41;5116045;28;20088;-73
2021/12/30 09:00:22;;;;;;;64.13;12.57;;;13.10;99.90;;;13.37;100.00;101226.59;5116099;28;20036;-73
2021/12/30 09:02:51;;;;;;;54.08;13.20;;;13.20;99.90;;;13.43;100.00;101236.28;5116619;28;20124;-73
2021/12/30 09:05:22;;;;;;;51.10;10.75;;;13.20;99.90;;;13.41;100.00;101230.94;5116299;28;20073;-73
2021/12/30 09:07:51;;;;;;;62.40;12.63;;;13.20;99.90;;;13.44;100.00;101235.38;5098007;28;20058;-73
2021/12/30 09:10:21;;;;;;;52.25;10.90;;;13.30;99.90;;;13.44;100.00;101227.41;5116147;28;20036;-73
2021/12/30 09:12:51;;;;;;;62.20;12.77;;;13.20;99.90;;;13.46;100.00;101230.91;5116224;28;20051;-73
2021/12/30 09:15:22;;;;;;;54.72;11.75;;;13.30;99.90;;;13.46;100.00;101218.50;5097862;28;20050;-73
2021/12/30 09:17:52;;;;;;;58.47;11.82;;;13.30;99.90;;;13.39;100.00;101227.44;5116110;28;20031;-75
2021/12/30 09:20:22;;;;;;;55.90;12.75;;;13.20;99.90;;;13.37;100.00;101231.03;5115644;28;20043;-74
2021/12/30 09:22:53;;;;;;;52.85;12.00;;;13.20;99.90;;;13.34;100.00;101218.63;5115637;28;20087;-75
2021/12/30 09:25:24;;;;;;;59.10;13.20;;;13.20;99.90;;;13.32;100.00;101215.13;5115446;28;20051;-71
2021/12/30 09:27:55;;;;;;;53.70;11.80;;;13.20;99.90;;;13.33;100.00;101231.94;5115610;28;20040;-75
2021/12/30 09:30:26;;;;;;;56.97;12.30;;;13.20;99.90;;;13.38;100.00;101240.75;5116095;28;20043;-75
2021/12/30 09:32:58;;;;;;;54.38;11.98;;;13.20;99.90;;;12.96;100.00;101166.75;5115517;28;20114;-80
2021/12/30 09:35:28;;;;;;;49.10;10.80;;;13.20;99.90;;;13.26;100.00;101252.38;5097457;28;20551;-72
2021/12/30 09:37:57;;;;;;;51.33;12.70;;;13.20;99.90;;;13.17;100.00;101225.00;5115700;28;20043;-77
2021/12/30 09:40:28;;;;;;;58.65;12.85;;;13.10;99.90;;;13.33;100.00;101246.13;5115249;28;20101;-77
2021/12/30 09:43:04;;;;;;;67.47;13.43;;;13.20;99.90;;;13.32;100.00;101251.41;5115295;28;20043;-76
2021/12/30 09:45:36;;;;;;;62.90;12.82;;;13.20;99.90;;;13.31;100.00;101261.19;5097176;28;20489;-79
2021/12/30 09:48:08;;;;;;;62.33;12.05;;;13.20;99.90;;;13.33;100.00;101271.78;5115784;28;20039;-75
2021/12/30 09:50:41;;;;;;;50.45;10.30;;;13.10;99.90;;;13.34;100.00;101265.56;5115501;28;20047;-72
2021/12/30 09:53:11;;;;;;;53.35;11.38;;;13.20;99.90;;;13.23;100.00;101241.78;5115205;28;20096;-80
2021/12/30 09:55:40;;;;;;;59.58;11.95;;;13.20;99.90;;;13.45;100.00;101250.44;5115329;28;20066;-76
2021/12/30 09:58:09;;;;;;;56.28;11.52;;;13.20;99.90;;;13.42;100.00;101254.00;5115219;28;20442;-79
2021/12/30 10:00:38;;;;;;;46.25;11.30;;;13.30;99.90;;;13.43;100.00;101279.66;5096558;28;20047;-76
2021/12/30 10:03:07;;;;;;;53.67;12.05;;;13.30;99.90;;;13.39;100.00;101272.59;5114792;28;20112;-76
2021/12/30 10:05:40;;;;;;;43.20;10.68;;;13.20;99.90;;;13.39;100.00;101285.03;5114695;28;20045;-74